Peachtree City, Georgia
Current Conditions -  °F | °C
As of 3:21 AM on Sunday 21 Dec 2014 (Local Time) from KFFC Reporting Station
Haze Haze  
Wind Chill: 48°   Ceiling: 600
Heat Index: 48°   Visibility: 2.5mi
Dew Point: 46°   Wind: 0mph
Humidity: 93%   Direction: NA
Pressure: 30.2"   Gusts: NA
Location:  33.4°N, 84.59°W
Report Text: KFFC 210821Z AUTO 00000KT 2 1/2SM BR OVC006 09/08 A3020 RMK AO2 T00890078
Loading
Personal Weather Stations






























Interactive Weather Map New forecast layout! Learn more

10-Day Weather Forecast

Advertisements
Track Severe Weather on mobile